Time;durP1;ratioP1;P1;durP2;ratioP2;P2;SDS_P1;SDS_P2;PMS_P1;PMS_P2;Temp;Humidity;BMP_temperature;BMP_pressure;BME280_temperature;BME280_humidity;BME280_pressure;Samples;Min_cycle;Max_cycle;Signal;HPM_P1;HPM_P2
2023/01/07 00:01:42;;;;;;;111.05;53.80;;;;;;;9.68;82.58;102238.38;4954941;28;20061;-78
2023/01/07 00:04:16;;;;;;;122.93;57.22;;;;;;;9.82;82.92;102260.47;4953680;28;20088;-80
2023/01/07 00:06:46;;;;;;;114.30;56.22;;;;;;;9.82;83.57;102262.28;4957391;28;20050;-79
2023/01/07 00:09:17;;;;;;;120.10;56.85;;;;;;;9.61;82.96;102225.50;4954657;28;20062;-78
2023/01/07 00:11:44;;;;;;;123.80;57.58;;;;;;;8.44;82.93;102024.75;4935769;28;20055;-79
2023/01/07 00:14:13;;;;;;;116.03;56.65;;;;;;;9.72;83.75;102245.22;4940299;29;20304;-78
2023/01/07 00:16:41;;;;;;;125.63;57.22;;;;;;;9.83;83.52;102248.94;4939746;28;20055;-80
2023/01/07 00:19:12;;;;;;;117.55;54.95;;;;;;;9.66;83.03;102229.66;4938289;29;20054;-79
2023/01/07 00:21:41;;;;;;;121.25;57.15;;;;;;;9.57;83.27;102218.66;4937613;29;20394;-78
2023/01/07 00:24:11;;;;;;;107.25;53.47;;;;;;;9.76;83.69;102257.34;4937865;29;20114;-79
2023/01/07 00:26:39;;;;;;;115.88;55.38;;;;;;;9.52;83.82;102209.28;4933170;29;20135;-77
2023/01/07 00:29:09;;;;;;;111.15;52.67;;;;;;;9.65;83.62;102233.25;4936378;29;20176;-77
2023/01/07 00:31:39;;;;;;;112.95;55.08;;;;;;;9.81;83.74;102250.81;4937859;29;20117;-79
2023/01/07 00:34:10;;;;;;;108.15;52.85;;;;;;;9.77;83.33;102245.78;4937825;29;20051;-80
2023/01/07 00:36:43;;;;;;;120.40;54.97;;;;;;;9.86;83.09;102257.66;4943149;28;20066;-78
2023/01/07 00:39:15;;;;;;;114.15;54.67;;;;;;;9.83;83.40;102264.84;4953525;28;20477;-77
2023/01/07 00:44:36;;;;;;;108.85;54.03;;;;;;;9.72;82.46;102226.66;4938242;29;20517;-77
2023/01/07 00:47:04;;;;;;;116.88;54.20;;;;;;;9.69;82.46;102234.78;4943949;29;20081;-77
2023/01/07 00:49:31;;;;;;;106.60;51.25;;;;;;;9.69;83.11;102240.09;4952531;28;20062;-79
2023/01/07 00:51:58;;;;;;;110.30;54.72;;;;;;;9.23;82.43;102157.97;4951438;28;20497;-78
2023/01/07 00:54:28;;;;;;;106.28;51.10;;;;;;;9.56;82.09;102187.78;4950983;28;20047;-77
2023/01/07 00:56:55;;;;;;;109.50;53.13;;;;;;;9.77;82.06;102245.78;4958701;28;20110;-78
2023/01/07 00:59:21;;;;;;;103.75;47.72;;;;;;;9.82;81.42;102252.53;4956015;28;20547;-79
2023/01/07 01:01:48;;;;;;;104.57;47.83;;;;;;;9.76;81.83;102241.44;4956655;28;20046;-79
2023/01/07 01:04:15;;;;;;;104.40;48.88;;;;;;;9.68;81.81;102241.88;4954126;28;20512;-79
2023/01/07 01:06:43;;;;;;;92.10;44.97;;;;;;;9.83;81.53;102253.41;4954711;28;20053;-79
2023/01/07 01:09:28;;;;;;;98.78;49.63;;;;;;;9.81;81.51;102252.63;5133224;27;21123;-76
2023/01/07 01:11:55;;;;;;;112.55;52.35;;;;;;;9.64;81.57;102221.81;5132748;27;20055;-76
2023/01/07 01:14:22;;;;;;;105.97;47.10;;;;;;;9.64;81.71;102219.16;5131017;27;20051;-79
2023/01/07 01:16:53;;;;;;;103.88;49.63;;;;;;;9.77;81.43;102229.88;5132234;27;20499;-78
2023/01/07 01:19:20;;;;;;;102.13;49.85;;;;;;;9.73;81.52;102239.78;5131372;27;20125;-78
2023/01/07 01:21:47;;;;;;;100.85;48.05;;;;;;;8.94;81.34;102104.88;5131830;27;20042;-79
2023/01/07 01:24:17;;;;;;;102.47;52.55;;;;;;;9.78;81.80;102239.53;5133218;27;20065;-77
2023/01/07 01:26:44;;;;;;;92.57;47.90;;;;;;;9.65;81.17;102215.53;5131339;27;20201;-77
2023/01/07 01:29:14;;;;;;;107.35;50.03;;;;;;;9.79;81.00;102233.31;5111913;27;20047;-79
2023/01/07 01:31:45;;;;;;;101.32;48.10;;;;;;;9.76;80.82;102238.78;5114791;27;20069;-79
2023/01/07 01:34:12;;;;;;;103.30;48.80;;;;;;;9.62;81.38;102221.88;5116269;27;20051;-80
2023/01/07 01:36:39;;;;;;;109.30;52.80;;;;;;;9.18;81.58;102134.38;5112142;27;20054;-79
2023/01/07 01:39:06;;;;;;;96.60;50.22;;;;;;;9.63;81.33;102220.94;5112313;27;20073;-77
2023/01/07 01:41:32;;;;;;;115.95;51.55;;;;;;;9.65;81.18;102212.88;5111488;27;20427;-79
2023/01/07 01:44:19;;;;;;;112.88;50.88;;;;;;;9.51;81.66;102196.94;5111465;27;20100;-78
2023/01/07 01:46:50;;;;;;;100.32;48.70;;;;;;;9.81;81.31;102236.72;5112043;27;20220;-78
2023/01/07 01:49:25;;;;;;;102.90;48.85;;;;;;;9.78;81.49;102223.63;5109123;27;20058;-78
2023/01/07 01:52:15;;;;;;;108.60;51.10;;;;;;;9.81;81.91;102223.47;5111480;27;20085;-80
2023/01/07 01:54:47;;;;;;;98.07;48.85;;;;;;;9.82;81.31;102225.16;5127761;27;20084;-80
2023/01/07 01:57:21;;;;;;;;;;;;;;;9.83;80.72;102232.19;5104481;28;20043;-79
2023/01/07 01:59:50;;;;;;;104.50;48.97;;;;;;;9.87;81.24;102223.06;5091414;28;19937;-79
2023/01/07 02:02:33;;;;;;;99.32;48.83;;;;;;;9.84;81.42;102213.50;5107675;28;20047;-79
2023/01/07 02:05:01;;;;;;;99.13;47.40;;;;;;;9.70;81.01;102191.41;5090248;28;20320;-78
2023/01/07 02:07:30;;;;;;;109.05;50.22;;;;;;;9.88;80.33;102218.63;5090500;28;20415;-79
2023/01/07 02:10:04;;;;;;;113.13;53.25;;;;;;;9.93;80.83;102224.53;5093888;27;20131;-80
2023/01/07 02:13:03;;;;;;;98.45;50.25;;;;;;;9.58;80.82;102169.13;5133751;27;20039;-80
2023/01/07 02:15:39;;;;;;;102.35;48.47;;;;;;;9.41;80.57;102130.38;5114714;27;20560;-78
2023/01/07 02:18:25;;;;;;;108.88;50.28;;;;;;;9.91;80.47;102208.69;5116538;27;20050;-79
2023/01/07 02:21:36;;;;;;;96.07;47.72;;;;;;;9.91;80.07;102211.34;5102030;27;20051;-78
2023/01/07 02:24:30;;;;;;;103.15;48.08;;;;;;;9.83;80.32;102195.88;5098069;27;20336;-78
2023/01/07 02:27:27;;;;;;;94.20;47.70;;;;;;;9.85;80.49;102198.44;5101273;27;20150;-79
2023/01/07 02:30:04;;;;;;;99.85;45.90;;;;;;;9.75;80.27;102186.69;5093001;27;20400;-76
2023/01/07 02:32:51;;;;;;;105.38;50.95;;;;;;;9.89;80.72;102199.97;5099464;27;20381;-77
2023/01/07 02:35:51;;;;;;;102.35;50.22;;;;;;;9.82;80.31;102177.41;5116642;27;20484;-77
2023/01/07 02:38:41;;;;;;;99.68;48.33;;;;;;;9.80;80.49;102179.28;5080478;28;20052;-77
2023/01/07 02:41:21;;;;;;;101.22;45.72;;;;;;;9.89;80.37;102185.84;5076132;28;20048;-79
2023/01/07 02:44:07;;;;;;;115.25;49.10;;;;;;;9.83;81.23;102185.28;5076334;28;20283;-78
2023/01/07 02:47:00;;;;;;;97.57;47.70;;;;;;;9.92;81.17;102190.97;5078865;28;20056;-79
2023/01/07 02:49:30;;;;;;;100.18;49.42;;;;;;;9.42;80.24;102110.88;5076540;28;20067;-78
2023/01/07 02:52:22;;;;;;;111.80;50.08;;;;;;;9.61;80.36;102143.28;5097401;28;20084;-79
2023/01/07 02:54:58;;;;;;;97.53;47.42;;;;;;;9.73;80.56;102143.47;5082794;27;20055;-79
2023/01/07 02:57:59;;;;;;;102.07;46.70;;;;;;;10.09;80.04;102176.66;5096614;27;20047;-78
2023/01/07 03:00:50;;;;;;;102.97;48.72;;;;;;;9.71;80.33;102095.84;5095153;27;20062;-79
2023/01/07 03:03:29;;;;;;;100.18;48.95;;;;;;;9.40;80.06;102047.34;5115052;27;20151;-79
2023/01/07 03:06:12;;;;;;;104.43;46.97;;;;;;;10.10;79.66;102154.47;5098970;27;20040;-79
2023/01/07 03:09:10;;;;;;;98.60;46.28;;;;;;;10.14;79.13;102166.63;5100255;27;20493;-79
2023/01/07 03:11:47;;;;;;;112.00;48.30;;;;;;;10.13;79.67;102160.47;5111994;27;20346;-79
2023/01/07 03:14:23;;;;;;;98.07;44.97;;;;;;;10.11;79.76;102161.50;5116563;27;20051;-78
2023/01/07 03:16:58;;;;;;;107.28;46.92;;;;;;;9.96;80.25;102136.78;5114962;27;20055;-77
2023/01/07 03:19:35;;;;;;;100.07;45.15;;;;;;;10.08;79.87;102151.09;5115787;27;20051;-78
2023/01/07 03:22:08;;;;;;;94.55;44.53;;;;;;;9.91;79.67;102115.84;5118643;27;20043;-79
2023/01/07 03:24:39;;;;;;;102.95;47.50;;;;;;;10.16;79.59;102159.41;5113921;27;20120;-79
2023/01/07 03:27:09;;;;;;;98.65;44.33;;;;;;;10.11;79.95;102151.75;5096353;27;20043;-77
2023/01/07 03:29:36;;;;;;;100.43;47.00;;;;;;;9.97;79.53;102118.09;5096933;27;20385;-77
2023/01/07 03:32:13;;;;;;;92.80;45.45;;;;;;;10.01;79.56;102130.22;5096168;27;20426;-78
2023/01/07 03:34:44;;;;;;;101.45;46.90;;;;;;;10.03;79.36;102138.94;5118554;27;20078;-79
2023/01/07 03:37:19;;;;;;;98.07;45.47;;;;;;;10.06;79.35;102133.44;5080039;28;20058;-78
2023/01/07 03:39:47;;;;;;;96.25;48.80;;;;;;;9.90;79.41;102103.50;5074410;28;20602;-78
2023/01/07 03:42:40;;;;;;;94.05;45.35;;;;;;;10.15;79.01;102157.72;5091102;28;20125;-78
2023/01/07 03:45:14;;;;;;;100.00;44.60;;;;;;;10.03;79.03;102130.16;5075812;28;20051;-78
2023/01/07 03:47:46;;;;;;;95.63;45.28;;;;;;;10.12;79.41;102148.16;5088835;28;20052;-78
2023/01/07 03:50:14;;;;;;;96.25;46.95;;;;;;;9.80;79.19;102094.41;5074442;28;20043;-77
2023/01/07 03:52:43;;;;;;;91.70;45.55;;;;;;;10.06;79.37;102141.41;5069384;28;20078;-78
2023/01/07 03:55:10;;;;;;;98.50;45.10;;;;;;;10.10;79.34;102144.75;5083246;27;20439;-80
2023/01/07 03:57:37;;;;;;;99.18;44.70;;;;;;;9.79;79.78;102087.41;5092030;27;20043;-78
2023/01/07 04:00:07;;;;;;;85.90;44.25;;;;;;;10.18;79.66;102149.56;5109157;27;20934;-78
2023/01/07 04:02:34;;;;;;;94.30;44.45;;;;;;;10.16;79.61;102147.00;5093007;27;20055;-77
2023/01/07 04:05:03;;;;;;;99.15;47.00;;;;;;;10.15;79.03;102136.50;5094047;27;20227;-79
2023/01/07 04:07:30;;;;;;;84.53;41.00;;;;;;;10.03;78.50;102124.84;5091102;28;20409;-78
2023/01/07 04:09:57;;;;;;;93.75;44.33;;;;;;;10.25;79.21;102148.22;5091945;28;20046;-78
2023/01/07 04:12:24;;;;;;;87.78;41.67;;;;;;;10.21;78.68;102136.09;5088421;28;20161;-79
2023/01/07 04:14:52;;;;;;;90.97;40.17;;;;;;;10.23;78.93;102139.50;5089717;28;20508;-80
2023/01/07 04:17:23;;;;;;;93.55;45.38;;;;;;;10.10;78.39;102127.94;5090342;28;20377;-77
2023/01/07 04:19:52;;;;;;;93.50;44.08;;;;;;;10.18;78.64;102138.94;5089738;28;20051;-78
2023/01/07 04:22:19;;;;;;;91.57;43.92;;;;;;;10.10;78.62;102126.16;5087829;28;20047;-78
2023/01/07 04:24:45;;;;;;;103.13;44.03;;;;;;;10.05;78.77;102128.25;5089838;28;20247;-78
2023/01/07 04:27:15;;;;;;;99.53;45.90;;;;;;;10.19;79.82;102160.06;5085985;28;20409;-80
2023/01/07 04:29:41;;;;;;;93.25;45.45;;;;;;;9.87;79.50;102111.66;5086035;28;20044;-79
2023/01/07 04:32:14;;;;;;;96.38;45.00;;;;;;;10.14;79.54;102151.53;5086261;28;20056;-79
2023/01/07 04:34:41;;;;;;;92.20;43.53;;;;;;;10.23;79.55;102155.44;5086736;28;20043;-78
2023/01/07 04:37:12;;;;;;;92.65;44.20;;;;;;;10.02;79.07;102121.34;5086027;28;20142;-78
2023/01/07 04:39:38;;;;;;;106.68;47.42;;;;;;;9.87;78.81;102095.75;5085011;28;20079;-79
2023/01/07 04:42:08;;;;;;;98.22;47.63;;;;;;;10.23;78.55;102155.44;5087785;28;20055;-78
2023/01/07 04:44:36;;;;;;;109.05;49.17;;;;;;;10.24;78.85;102154.47;5082839;28;20043;-81
2023/01/07 04:47:03;;;;;;;99.53;47.03;;;;;;;10.02;78.43;102115.16;5090875;28;20044;-78
2023/01/07 04:49:29;;;;;;;98.45;46.05;;;;;;;10.22;78.59;102151.94;5085380;28;20131;-79
2023/01/07 04:51:56;;;;;;;97.13;45.10;;;;;;;9.83;78.90;102078.34;5085415;28;20047;-78
2023/01/07 04:54:26;;;;;;;95.45;46.85;;;;;;;10.19;78.72;102138.81;5088357;28;20054;-78
2023/01/07 04:56:53;;;;;;;94.53;48.50;;;;;;;10.27;78.76;102146.34;5086399;28;20191;-80
2023/01/07 04:59:20;;;;;;;101.65;46.95;;;;;;;10.26;78.10;102144.59;5088385;28;20056;-80
2023/01/07 05:01:47;;;;;;;103.18;47.10;;;;;;;10.24;78.37;102150.03;5089963;28;20043;-79
2023/01/07 05:04:13;;;;;;;97.10;48.42;;;;;;;10.26;78.52;102152.56;5090426;28;20562;-78
2023/01/07 05:06:40;;;;;;;99.55;47.58;;;;;;;10.24;79.00;102146.50;5089473;28;20047;-77
2023/01/07 05:09:12;;;;;;;108.72;48.20;;;;;;;10.23;78.85;102156.28;5108329;28;20047;-77
2023/01/07 05:11:39;;;;;;;96.78;48.17;;;;;;;10.24;78.85;102157.13;5108922;28;20058;-78
2023/01/07 05:14:06;;;;;;;96.90;46.70;;;;;;;10.21;79.25;102149.34;5111723;28;20083;-79
2023/01/07 05:16:34;;;;;;;97.88;47.50;;;;;;;9.91;79.16;102105.22;5110458;28;20035;-78
2023/01/07 05:19:01;;;;;;;107.38;49.22;;;;;;;9.72;79.05;102059.56;5109421;28;20447;-77
2023/01/07 05:21:37;;;;;;;92.43;46.08;;;;;;;10.16;78.76;102144.34;5110613;28;20051;-79
2023/01/07 05:24:04;;;;;;;111.45;49.33;;;;;;;9.99;79.26;102113.53;5090930;28;20313;-79
2023/01/07 05:26:31;;;;;;;100.90;46.42;;;;;;;10.13;79.11;102136.56;5093378;28;20409;-79
2023/01/07 05:29:05;;;;;;;104.65;48.67;;;;;;;9.99;79.00;102108.25;5111375;28;20039;-80
2023/01/07 05:31:32;;;;;;;100.22;48.13;;;;;;;9.65;78.60;102039.69;5088746;28;20047;-80
2023/01/07 05:34:01;;;;;;;110.65;50.85;;;;;;;10.02;79.15;102120.47;5087747;28;20054;-79
2023/01/07 05:36:31;;;;;;;106.93;48.75;;;;;;;10.01;79.35;102114.31;5085023;28;20134;-79
2023/01/07 05:38:57;;;;;;;91.60;45.42;;;;;;;10.26;79.70;102152.56;5068849;28;20055;-80
2023/01/07 05:41:24;;;;;;;99.82;48.80;;;;;;;9.99;79.32;102110.91;5072759;28;20270;-80
2023/01/07 05:43:59;;;;;;;100.53;48.40;;;;;;;10.18;79.03;102141.59;5073870;28;20054;-79
2023/01/07 05:46:25;;;;;;;110.00;49.33;;;;;;;9.93;79.63;102105.13;5075976;28;20078;-80
2023/01/07 05:48:53;;;;;;;104.65;48.42;;;;;;;10.09;79.62;102110.31;5069528;28;20047;-80
2023/01/07 05:51:20;;;;;;;101.65;47.67;;;;;;;10.25;79.61;102108.41;5072656;28;20048;-79
2023/01/07 05:53:50;;;;;;;100.75;47.30;;;;;;;9.74;78.36;102015.25;5076036;28;20542;-77
2023/01/07 05:56:22;;;;;;;100.25;46.58;;;;;;;10.60;77.81;102155.78;5112424;27;20482;-79
2023/01/07 05:58:51;;;;;;;99.88;47.40;;;;;;;10.35;78.07;102122.84;5093664;27;20352;-80
2023/01/07 06:01:20;;;;;;;99.35;47.17;;;;;;;10.31;78.16;102126.63;5100100;27;20055;-78
2023/01/07 06:03:52;;;;;;;94.95;47.30;;;;;;;10.45;78.03;102155.81;5099957;27;20103;-78
2023/01/07 06:06:19;;;;;;;104.50;49.03;;;;;;;10.29;78.15;102132.97;5095913;27;20322;-78
2023/01/07 06:08:46;;;;;;;110.75;48.78;;;;;;;10.08;78.46;102103.31;5097112;27;20050;-79
2023/01/07 06:11:14;;;;;;;106.22;46.63;;;;;;;9.97;78.41;102090.72;5108757;27;20049;-79
2023/01/07 06:13:47;;;;;;;97.03;46.08;;;;;;;10.32;78.63;102170.81;5109477;27;20103;-78
2023/01/07 06:16:16;;;;;;;103.90;47.67;;;;;;;9.84;78.50;102090.63;5107395;27;20035;-79
2023/01/07 06:18:43;;;;;;;97.80;45.90;;;;;;;10.09;78.96;102136.88;5093042;27;20320;-79
2023/01/07 06:21:10;;;;;;;104.72;45.72;;;;;;;10.15;78.95;102152.41;5095391;27;20247;-78
2023/01/07 06:23:40;;;;;;;101.05;44.78;;;;;;;9.83;78.84;102100.41;5097441;27;20077;-79
2023/01/07 06:26:07;;;;;;;99.45;43.42;;;;;;;10.30;78.88;102169.22;5095775;27;20051;-80
2023/01/07 06:28:35;;;;;;;101.47;44.70;;;;;;;10.37;78.28;102162.56;5096200;27;20035;-79
2023/01/07 06:31:02;;;;;;;96.22;44.53;;;;;;;10.09;78.08;102121.78;5095106;27;20149;-78
2023/01/07 06:33:42;;;;;;;90.53;42.80;;;;;;;10.36;78.09;102167.00;5099155;27;20075;-78
2023/01/07 06:36:18;;;;;;;86.53;41.80;;;;;;;10.17;77.68;102129.25;5096239;27;20083;-79
2023/01/07 06:38:54;;;;;;;93.10;41.40;;;;;;;10.38;76.97;102173.06;5098781;27;20411;-78
2023/01/07 06:41:29;;;;;;;87.28;39.22;;;;;;;10.20;77.42;102132.59;5087691;27;20043;-77
2023/01/07 06:44:05;;;;;;;86.55;41.13;;;;;;;9.97;77.13;102086.25;5104410;27;20048;-78
2023/01/07 06:46:32;;;;;;;87.90;40.92;;;;;;;10.41;76.75;102164.94;5103502;27;20259;-80
2023/01/07 06:49:02;;;;;;;82.28;38.80;;;;;;;10.27;77.06;102138.38;5074252;28;20155;-78
2023/01/07 06:51:29;;;;;;;85.55;38.03;;;;;;;10.42;76.79;102161.31;5076348;27;20096;-79
2023/01/07 06:53:58;;;;;;;83.50;37.92;;;;;;;10.50;77.02;102157.31;5083511;27;20047;-76
2023/01/07 06:56:24;;;;;;;83.72;36.63;;;;;;;9.92;76.92;102067.13;5109930;27;20055;-79
2023/01/07 06:58:53;;;;;;;87.03;39.15;;;;;;;10.27;76.61;102130.41;5079273;27;20055;-79
2023/01/07 07:01:20;;;;;;;76.38;34.13;;;;;;;10.39;76.52;102150.03;5086442;27;20051;-80
2023/01/07 07:03:47;;;;;;;75.95;35.28;;;;;;;10.46;77.12;102162.84;5084642;27;20108;-78
2023/01/07 07:06:14;;;;;;;70.38;35.95;;;;;;;10.52;76.71;102160.72;5086742;27;20058;-79
2023/01/07 07:08:42;;;;;;;83.10;37.15;;;;;;;10.52;76.64;102158.94;5085703;27;20042;-80
2023/01/07 07:11:11;;;;;;;72.82;34.33;;;;;;;10.18;76.26;102102.63;5096927;27;20086;-79
2023/01/07 07:13:38;;;;;;;72.75;34.67;;;;;;;10.48;76.18;102147.66;5104717;27;20493;-79
2023/01/07 07:16:07;;;;;;;74.97;33.00;;;;;;;10.54;76.42;102154.38;5101740;27;20047;-80
2023/01/07 07:18:40;;;;;;;72.00;34.92;;;;;;;10.41;76.08;102135.72;5109954;27;20039;-79
2023/01/07 07:21:08;;;;;;;70.13;33.83;;;;;;;10.50;76.35;102157.31;5111143;27;20169;-80
2023/01/07 07:23:34;;;;;;;68.88;31.63;;;;;;;9.99;76.59;102073.75;5111589;27;20440;-78
2023/01/07 07:26:01;;;;;;;76.88;33.40;;;;;;;10.42;76.04;102144.53;5078380;28;20421;-80
2023/01/07 07:28:29;;;;;;;69.75;32.13;;;;;;;10.27;76.63;102115.31;5081673;28;20052;-79
2023/01/07 07:30:58;;;;;;;65.32;30.05;;;;;;;10.22;75.60;102101.50;5078536;28;20348;-78
2023/01/07 07:33:29;;;;;;;63.45;29.98;;;;;;;10.43;76.17;102138.25;5078729;27;20070;-78
2023/01/07 07:35:56;;;;;;;62.03;28.77;;;;;;;10.45;75.96;102131.91;5114433;27;20499;-78
2023/01/07 07:38:23;;;;;;;55.67;28.60;;;;;;;9.55;75.83;101973.97;5094063;28;20523;-79
2023/01/07 07:40:50;;;;;;;60.63;29.23;;;;;;;10.46;76.17;102117.69;5074415;28;20049;-79
2023/01/07 07:43:17;;;;;;;55.80;27.80;;;;;;;10.27;75.29;102082.63;5075284;28;20055;-78
2023/01/07 07:45:45;;;;;;;59.53;28.70;;;;;;;10.62;75.23;102140.59;5098248;27;20133;-80
2023/01/07 07:48:14;;;;;;;53.00;25.65;;;;;;;10.68;75.48;102143.72;5094675;27;20047;-78
2023/01/07 07:50:41;;;;;;;55.65;26.88;;;;;;;10.10;74.64;102053.63;5097544;27;20043;-76
2023/01/07 07:53:08;;;;;;;61.60;26.65;;;;;;;10.37;75.06;102110.31;5094927;27;20078;-79
2023/01/07 07:55:37;;;;;;;52.08;27.45;;;;;;;10.57;75.08;102142.69;5098852;27;20057;-78
2023/01/07 07:58:04;;;;;;;60.05;27.45;;;;;;;10.09;75.68;102065.22;5116670;27;20409;-80
2023/01/07 08:00:31;;;;;;;48.58;24.90;;;;;;;10.66;74.80;102144.78;5095728;27;20051;-80
2023/01/07 08:03:01;;;;;;;52.45;25.13;;;;;;;10.45;74.52;102112.47;5098053;27;20169;-78
2023/01/07 08:05:44;;;;;;;45.05;22.35;;;;;;;10.68;73.85;102145.53;5094868;27;20430;-78
2023/01/07 08:08:13;;;;;;;46.22;22.15;;;;;;;10.70;73.05;102151.56;5096039;27;20516;-79
2023/01/07 08:10:41;;;;;;;44.13;21.48;;;;;;;10.75;74.00;102154.78;5102759;27;20485;-78
2023/01/07 08:13:18;;;;;;;42.75;21.77;;;;;;;10.66;73.56;102118.22;5110493;27;20508;-78
2023/01/07 08:15:50;;;;;;;45.38;22.08;;;;;;;10.71;73.61;102117.91;5110216;27;20046;-79
2023/01/07 08:18:18;;;;;;;;;;;;;;;10.79;73.10;102153.63;5114304;27;20063;-78
2023/01/07 08:20:45;;;;;;;40.10;20.80;;;;;;;10.27;72.98;102050.78;5114322;27;19925;-80
2023/01/07 08:23:12;;;;;;;42.97;21.48;;;;;;;10.60;72.62;102121.25;5093491;27;20062;-78
2023/01/07 08:25:39;;;;;;;44.65;21.95;;;;;;;10.76;72.99;102143.22;5083683;28;20040;-78
2023/01/07 08:28:06;;;;;;;44.30;19.88;;;;;;;10.89;72.87;102149.41;5074338;28;20395;-78
2023/01/07 08:30:32;;;;;;;38.88;19.48;;;;;;;10.86;72.78;102135.50;5072561;28;20489;-80
2023/01/07 08:33:09;;;;;;;37.28;20.17;;;;;;;10.70;72.27;102111.72;5073930;28;20292;-78
2023/01/07 08:35:43;;;;;;;40.03;20.48;;;;;;;10.82;72.47;102126.84;5073002;28;20386;-79
2023/01/07 08:38:13;;;;;;;44.63;20.33;;;;;;;11.01;72.67;102147.75;5072086;28;20418;-80
2023/01/07 08:40:49;;;;;;;38.50;19.45;;;;;;;10.77;71.77;102113.03;5075102;28;20078;-80
2023/01/07 08:43:18;;;;;;;41.83;20.30;;;;;;;10.90;72.15;102140.50;5074734;28;20062;-79
2023/01/07 08:45:50;;;;;;;37.90;19.77;;;;;;;11.07;72.50;102139.41;5075042;28;20144;-80
2023/01/07 08:48:25;;;;;;;47.60;23.90;;;;;;;10.79;71.95;102089.88;5094591;28;20056;-78
2023/01/07 08:50:55;;;;;;;45.13;23.27;;;;;;;10.80;71.95;102096.03;5074172;28;20127;-80
2023/01/07 08:53:31;;;;;;;49.35;23.60;;;;;;;10.90;71.93;102113.94;5075124;28;20058;-78
2023/01/07 08:56:01;;;;;;;42.75;23.25;;;;;;;10.35;72.29;102021.97;5095123;28;20039;-77
2023/01/07 08:58:28;;;;;;;36.40;19.08;;;;;;;11.08;73.28;102126.94;5074520;28;20132;-78
2023/01/07 09:01:04;;;;;;;44.90;22.92;;;;;;;11.10;72.09;102125.88;5074428;28;20039;-79
2023/01/07 09:03:33;;;;;;;46.47;22.85;;;;;;;11.29;71.38;102146.78;5077382;28;20048;-80
2023/01/07 09:06:00;;;;;;;43.53;23.15;;;;;;;11.02;71.72;102130.00;5074844;28;20044;-78
2023/01/07 09:08:27;;;;;;;44.13;23.17;;;;;;;10.84;71.51;102103.69;5079172;28;20134;-79
2023/01/07 09:10:55;;;;;;;48.55;22.00;;;;;;;10.99;71.96;102116.94;5075373;28;20059;-79
2023/01/07 09:13:21;;;;;;;41.90;21.92;;;;;;;10.55;71.65;102036.56;5078786;28;20494;-79
2023/01/07 09:15:49;;;;;;;39.85;22.38;;;;;;;10.67;71.13;102054.34;5090329;28;20478;-78
2023/01/07 09:18:16;;;;;;;45.05;21.27;;;;;;;10.65;70.98;102058.91;5077391;28;20051;-79
2023/01/07 09:20:46;;;;;;;44.25;22.00;;;;;;;11.29;71.21;102156.56;5072801;28;20500;-80
2023/01/07 09:23:13;;;;;;;44.95;22.30;;;;;;;11.01;70.82;102101.72;5073518;28;20059;-77
2023/01/07 09:25:41;;;;;;;44.22;22.88;;;;;;;11.28;71.32;102160.16;5082888;28;20059;-80
2023/01/07 09:28:07;;;;;;;35.33;21.70;;;;;;;11.25;71.44;102129.31;5094064;27;20256;-78
2023/01/07 09:30:44;;;;;;;45.50;21.75;;;;;;;11.23;70.76;102130.38;5113692;27;20338;-79
2023/01/07 09:33:17;;;;;;;48.00;22.00;;;;;;;11.52;71.21;102162.97;5100338;27;20058;-80
2023/01/07 09:35:48;;;;;;;44.10;22.87;;;;;;;11.04;70.88;102081.09;5098997;27;20070;-81
2023/01/07 09:38:14;;;;;;;37.67;19.27;;;;;;;11.59;70.78;102156.28;5075560;28;20051;-77
2023/01/07 09:40:46;;;;;;;46.10;19.88;;;;;;;11.06;71.39;102065.91;5077911;28;20782;-79
2023/01/07 09:43:17;;;;;;;36.40;18.90;;;;;;;11.92;71.85;102149.63;5077577;28;20082;-77
2023/01/07 09:45:49;;;;;;;38.15;18.20;;;;;;;12.27;70.89;102154.25;5079415;28;20282;-80
2023/01/07 09:48:37;;;;;;;35.85;18.80;;;;;;;12.25;71.03;102153.50;5079630;28;20044;-80
2023/01/07 09:51:29;;;;;;;41.40;19.88;;;;;;;12.57;69.67;102133.41;5078780;28;20047;-79
2023/01/07 09:54:13;;;;;;;43.25;21.02;;;;;;;12.54;68.06;102146.09;5079844;28;20083;-79
2023/01/07 09:56:39;;;;;;;40.15;21.17;;;;;;;12.22;68.70;102130.63;5079797;28;20128;-77
2023/01/07 09:59:11;;;;;;;35.85;18.77;;;;;;;12.19;68.65;102144.16;5096203;28;20444;-77
2023/01/07 10:02:14;;;;;;;41.42;19.48;;;;;;;12.09;68.65;102141.31;5077118;28;20052;-77
2023/01/07 10:05:32;;;;;;;32.03;18.75;;;;;;;12.18;70.14;102134.44;5074993;28;20056;-80
2023/01/07 10:08:23;;;;;;;36.78;17.77;;;;;;;12.42;70.05;102136.31;5031245;28;20481;-77
2023/01/07 10:11:30;;;;;;;38.55;19.60;;;;;;;12.28;67.88;102135.53;5103171;27;20580;-78
2023/01/07 10:14:04;;;;;;;37.35;19.25;;;;;;;11.94;68.33;102089.13;5116896;27;20043;-78
2023/01/07 10:16:53;;;;;;;38.88;18.67;;;;;;;12.11;68.40;102127.88;5118585;27;20100;-78
2023/01/07 10:19:52;;;;;;;38.03;19.23;;;;;;;11.60;67.60;102058.72;5114139;27;20108;-78
2023/01/07 10:22:31;;;;;;;40.80;18.58;;;;;;;11.96;67.67;102125.31;5113608;27;20171;-77
2023/01/07 10:25:08;;;;;;;31.33;16.30;;;;;;;11.73;68.02;102084.34;5113172;27;20526;-80
2023/01/07 10:27:39;;;;;;;34.08;18.15;;;;;;;12.12;69.30;102119.78;5115194;27;20047;-80
2023/01/07 10:30:30;;;;;;;39.92;18.98;;;;;;;11.89;67.52;102085.94;5112718;27;20043;-81
2023/01/07 10:33:11;;;;;;;27.95;16.20;;;;;;;12.15;68.80;102102.72;5114078;27;20039;-78
2023/01/07 10:35:40;;;;;;;34.75;17.90;;;;;;;12.00;69.27;102072.75;5118371;27;20400;-79
2023/01/07 10:38:16;;;;;;;30.63;17.67;;;;;;;11.61;67.74;102020.53;5082560;28;20131;-79
2023/01/07 10:40:52;;;;;;;33.90;18.17;;;;;;;12.05;68.62;102086.56;5080214;28;20052;-79
2023/01/07 10:43:59;;;;;;;37.60;17.63;;;;;;;11.98;68.18;102080.81;5081409;28;20654;-80
2023/01/07 10:46:59;;;;;;;37.92;19.83;;;;;;;12.21;68.72;102093.44;5079044;28;20413;-80
2023/01/07 10:49:34;;;;;;;40.22;20.50;;;;;;;12.16;68.56;102081.34;5084726;28;20535;-81
2023/01/07 10:52:54;;;;;;;27.90;15.98;;;;;;;12.04;67.98;102047.63;5101126;28;20052;-79
2023/01/07 10:55:38;;;;;;;37.80;19.80;;;;;;;11.80;67.18;102006.78;5064158;27;20043;-79
2023/01/07 10:58:11;;;;;;;37.13;18.27;;;;;;;11.64;68.36;101975.94;5104866;27;20131;-79
2023/01/07 11:00:44;;;;;;;29.67;16.73;;;;;;;12.08;68.41;102043.75;5071543;28;20052;-79
2023/01/07 11:03:20;;;;;;;35.38;17.17;;;;;;;11.89;67.83;102000.81;5081223;27;20415;-78
2023/01/07 11:05:58;;;;;;;30.33;16.02;;;;;;;12.07;68.67;102028.75;5111867;27;20138;-78
2023/01/07 11:08:35;;;;;;;29.27;16.52;;;;;;;12.30;67.79;102058.16;5114229;27;20055;-78
2023/01/07 11:11:12;;;;;;;32.80;18.27;;;;;;;12.24;68.49;102055.97;5099975;27;20035;-77
2023/01/07 11:13:55;;;;;;;30.20;16.75;;;;;;;12.22;68.23;102055.22;5096593;27;20043;-79
2023/01/07 11:16:51;;;;;;;27.17;15.40;;;;;;;12.15;67.35;102060.97;5095024;27;20432;-79
2023/01/07 11:19:22;;;;;;;32.65;17.73;;;;;;;11.77;68.32;102007.81;5116331;27;20051;-77
2023/01/07 11:21:52;;;;;;;28.80;15.45;;;;;;;12.15;68.90;102058.31;5093939;27;20341;-77
2023/01/07 11:24:25;;;;;;;31.60;16.88;;;;;;;11.82;68.11;101979.09;5098862;27;20291;-80
2023/01/07 11:27:01;;;;;;;30.15;16.30;;;;;;;12.18;68.75;102034.16;5078013;28;20348;-80
2023/01/07 11:29:41;;;;;;;32.63;17.17;;;;;;;12.13;67.96;102035.44;5078207;28;20078;-79
2023/01/07 11:32:33;;;;;;;30.75;18.08;;;;;;;11.94;66.71;102027.94;5080539;28;20055;-79
2023/01/07 11:35:27;;;;;;;28.30;15.45;;;;;;;12.01;69.13;102015.88;5095371;28;20047;-78
2023/01/07 11:37:57;;;;;;;27.13;15.73;;;;;;;12.32;68.55;102034.94;5079098;28;20048;-80
2023/01/07 11:40:27;;;;;;;33.75;18.63;;;;;;;12.28;67.99;102031.66;5114596;27;20051;-76